createdAt,value
2022-11-01T00:01:38.428Z,4.10
2022-11-01T00:04:05.567Z,4.10
2022-11-01T00:06:32.364Z,3.85
2022-11-01T00:08:59.264Z,4.65
2022-11-01T00:11:26.315Z,4.35
2022-11-01T00:13:53.143Z,4.25
2022-11-01T00:16:20.665Z,4.95
2022-11-01T00:18:47.786Z,4.22
2022-11-01T00:21:15.693Z,4.93
2022-11-01T00:23:42.856Z,4.65
2022-11-01T00:26:16.182Z,4.18
2022-11-01T00:28:43.141Z,4.72
2022-11-01T00:31:12.619Z,4.75
2022-11-01T00:33:39.858Z,5.22
2022-11-01T00:36:08.969Z,5.53
2022-11-01T00:38:36.463Z,4.72
2022-11-01T00:41:04.152Z,5.82
2022-11-01T00:43:32.389Z,5.28
2022-11-01T00:46:00.185Z,4.47
2022-11-01T00:48:27.175Z,5.25
2022-11-01T00:50:54.614Z,5.43
2022-11-01T00:53:21.750Z,5.65
2022-11-01T00:55:48.522Z,6.40
2022-11-01T00:58:16.178Z,5.03
2022-11-01T01:00:43.012Z,5.20
2022-11-01T01:03:10.645Z,6.38
2022-11-01T01:05:37.969Z,5.57
2022-11-01T01:08:05.012Z,5.50
2022-11-01T01:10:31.865Z,5.38
2022-11-01T01:12:59.002Z,5.18
2022-11-01T01:15:26.132Z,4.68
2022-11-01T01:17:53.356Z,5.13
2022-11-01T01:20:20.713Z,5.13
2022-11-01T01:22:47.972Z,5.32
2022-11-01T01:25:15.373Z,4.43
2022-11-01T01:27:42.454Z,4.53
2022-11-01T01:30:09.663Z,4.60
2022-11-01T01:32:36.689Z,4.32
2022-11-01T01:35:04.458Z,4.80
2022-11-01T01:37:31.307Z,4.43
2022-11-01T01:39:58.315Z,4.80
2022-11-01T01:42:32.925Z,4.85
2022-11-01T01:44:59.943Z,4.40
2022-11-01T01:47:30.586Z,3.97
2022-11-01T01:49:57.275Z,4.40
2022-11-01T01:52:24.303Z,4.68
2022-11-01T01:54:51.773Z,5.30
2022-11-01T01:57:19.548Z,4.65
2022-11-01T01:59:46.714Z,4.15
2022-11-01T02:02:14.468Z,4.90
2022-11-01T02:04:45.909Z,4.75
2022-11-01T02:07:12.949Z,4.90
2022-11-01T02:09:40.578Z,4.95
2022-11-01T02:12:08.494Z,4.20
2022-11-01T02:14:35.383Z,4.30
2022-11-01T02:17:10.120Z,4.47
2022-11-01T02:20:12.183Z,5.25
2022-11-01T02:23:32.913Z,4.68
2022-11-01T02:26:29.447Z,5.00
2022-11-01T02:29:15.293Z,4.68
2022-11-01T02:32:06.165Z,4.28
2022-11-01T02:34:39.107Z,5.20
2022-11-01T02:37:21.187Z,4.45
2022-11-01T02:39:52.287Z,4.97
2022-11-01T02:42:28.214Z,4.35
2022-11-01T02:45:27.585Z,4.38
2022-11-01T02:47:57.733Z,4.72
2022-11-01T02:50:32.089Z,4.13
2022-11-01T02:53:00.074Z,4.90
2022-11-01T02:55:30.490Z,5.10
2022-11-01T02:58:01.015Z,5.28
2022-11-01T03:00:31.883Z,5.00
2022-11-01T03:03:08.805Z,4.88
2022-11-01T03:05:52.497Z,4.00
2022-11-01T03:08:23.119Z,4.50
2022-11-01T03:11:19.856Z,5.03
2022-11-01T03:13:46.554Z,4.57
2022-11-01T03:16:52.343Z,5.13
2022-11-01T03:19:48.930Z,4.53
2022-11-01T03:22:23.575Z,4.30
2022-11-01T03:25:38.681Z,4.68
2022-11-01T03:28:24.042Z,4.85
2022-11-01T03:31:02.313Z,4.28
2022-11-01T03:33:31.281Z,4.50
2022-11-01T03:36:11.848Z,4.75
2022-11-01T03:38:46.033Z,4.43
2022-11-01T03:41:17.710Z,4.57
2022-11-01T03:43:44.721Z,4.50
2022-11-01T03:46:13.545Z,5.03
2022-11-01T03:48:41.047Z,4.47
2022-11-01T03:51:08.375Z,3.92
2022-11-01T03:53:35.507Z,4.32
2022-11-01T03:56:02.334Z,4.03
2022-11-01T03:58:42.014Z,4.47
2022-11-01T04:01:11.054Z,4.43
2022-11-01T04:03:38.008Z,4.05
2022-11-01T04:06:05.850Z,4.28
2022-11-01T04:08:33.378Z,4.45
2022-11-01T04:11:00.707Z,3.88
2022-11-01T04:13:27.543Z,3.85
2022-11-01T04:16:13.264Z,4.07
2022-11-01T04:18:58.508Z,3.90
2022-11-01T04:21:26.607Z,3.60
2022-11-01T04:23:53.553Z,3.63
2022-11-01T04:26:23.282Z,3.90
2022-11-01T04:28:59.511Z,3.90
2022-11-01T04:31:28.676Z,3.55
2022-11-01T04:33:59.865Z,4.00
2022-11-01T04:36:27.020Z,4.55
2022-11-01T04:38:55.953Z,3.50
2022-11-01T04:41:24.948Z,3.60
2022-11-01T04:43:54.474Z,3.38
2022-11-01T04:46:21.413Z,3.65
2022-11-01T04:48:48.423Z,3.85
2022-11-01T04:51:15.234Z,3.50
2022-11-01T04:53:42.056Z,3.05
2022-11-01T04:56:11.601Z,3.03
2022-11-01T04:58:43.066Z,2.70
2022-11-01T05:01:14.459Z,3.08
2022-11-01T05:03:41.718Z,2.80
2022-11-01T05:06:08.538Z,3.10
2022-11-01T05:08:35.333Z,3.75
2022-11-01T05:11:02.166Z,3.83
2022-11-01T05:13:29.087Z,4.45
2022-11-01T05:16:21.091Z,4.65
2022-11-01T05:18:43.651Z,4.78
2022-11-01T05:21:11.074Z,4.70
2022-11-01T05:23:37.945Z,4.22
2022-11-01T05:26:04.972Z,3.85
2022-11-01T05:28:31.788Z,3.05
2022-11-01T05:30:58.841Z,2.45
2022-11-01T05:33:26.043Z,2.08
2022-11-01T05:35:52.841Z,2.17
2022-11-01T05:38:19.886Z,2.15
2022-11-01T05:40:47.042Z,2.60
2022-11-01T05:43:13.945Z,2.47
2022-11-01T05:45:40.797Z,1.80
2022-11-01T05:48:07.648Z,1.90
2022-11-01T05:50:34.440Z,2.28
2022-11-01T05:53:06.093Z,2.15
2022-11-01T05:55:33.009Z,2.15
2022-11-01T05:57:59.836Z,1.80
2022-11-01T06:00:26.678Z,1.33
2022-11-01T06:02:53.714Z,1.08
2022-11-01T06:05:20.541Z,1.45
2022-11-01T06:07:47.315Z,1.17
2022-11-01T06:10:14.119Z,1.35
2022-11-01T06:12:40.851Z,1.20
2022-11-01T06:15:08.160Z,1.15
2022-11-01T06:17:34.982Z,1.42
2022-11-01T06:20:02.045Z,1.35
2022-11-01T06:22:28.867Z,1.40
2022-11-01T06:24:55.695Z,1.30
2022-11-01T06:27:22.471Z,1.35
2022-11-01T06:29:49.242Z,1.60
2022-11-01T06:32:16.025Z,1.10
2022-11-01T06:34:44.991Z,1.13
2022-11-01T06:37:12.089Z,1.00
2022-11-01T06:39:39.156Z,0.90
2022-11-01T06:42:05.962Z,1.10
2022-11-01T06:44:33.173Z,1.10
2022-11-01T06:46:59.975Z,1.27
2022-11-01T06:49:26.728Z,1.10
2022-11-01T06:51:54.058Z,1.30
2022-11-01T06:54:21.246Z,1.17
2022-11-01T06:56:48.829Z,1.00
2022-11-01T06:59:16.991Z,1.15
2022-11-01T07:01:44.362Z,1.15
2022-11-01T07:06:38.400Z,1.35
2022-11-01T07:09:05.627Z,0.70
2022-11-01T07:11:33.470Z,0.82
2022-11-01T07:14:00.352Z,1.08
2022-11-01T07:16:27.262Z,1.00
2022-11-01T07:18:54.362Z,0.88
2022-11-01T07:21:21.220Z,0.90
2022-11-01T07:23:48.687Z,0.82
2022-11-01T07:26:15.884Z,0.98
2022-11-01T07:28:43.067Z,1.23
2022-11-01T07:31:10.205Z,0.88
2022-11-01T07:33:37.378Z,0.80
2022-11-01T07:36:04.766Z,0.95
2022-11-01T07:38:32.558Z,1.10
2022-11-01T07:41:00.016Z,0.60
2022-11-01T07:43:27.200Z,0.90
2022-11-01T07:45:58.029Z,0.77
2022-11-01T07:48:24.912Z,0.70
2022-11-01T07:50:57.285Z,0.70
2022-11-01T07:53:24.323Z,1.00
2022-11-01T07:55:51.415Z,0.98
2022-11-01T07:58:18.294Z,0.80
2022-11-01T08:00:45.641Z,1.25
2022-11-01T08:03:15.265Z,0.80
2022-11-01T08:05:43.712Z,0.80
2022-11-01T08:08:11.345Z,1.10
2022-11-01T08:10:39.083Z,0.82
2022-11-01T08:13:08.955Z,0.88
2022-11-01T08:15:36.138Z,0.93
2022-11-01T08:18:03.594Z,0.75
2022-11-01T08:20:30.859Z,1.07
2022-11-01T08:22:58.032Z,1.30
2022-11-01T08:25:25.453Z,0.90
2022-11-01T08:27:52.613Z,1.20
2022-11-01T08:30:21.063Z,1.17
2022-11-01T08:32:47.861Z,1.15
2022-11-01T08:35:14.879Z,0.90
2022-11-01T08:37:51.766Z,0.90
2022-11-01T08:40:19.589Z,1.45
2022-11-01T08:42:46.788Z,1.60
2022-11-01T08:45:13.937Z,2.73
2022-11-01T08:47:41.422Z,2.80
2022-11-01T08:50:11.391Z,2.70
2022-11-01T08:52:39.075Z,2.22
2022-11-01T08:55:07.336Z,1.75
2022-11-01T08:57:34.110Z,1.20
2022-11-01T09:00:02.079Z,1.10
2022-11-01T09:02:29.154Z,1.60
2022-11-01T09:04:55.963Z,1.67
2022-11-01T09:07:22.692Z,1.63
2022-11-01T09:09:49.466Z,2.00
2022-11-01T09:12:18.387Z,1.30
2022-11-01T09:14:49.099Z,1.65
2022-11-01T09:17:15.890Z,1.88
2022-11-01T09:19:42.909Z,2.30
2022-11-01T09:22:10.285Z,1.33
2022-11-01T09:24:37.135Z,1.70
2022-11-01T09:27:03.948Z,1.92
2022-11-01T09:29:30.916Z,2.80
2022-11-01T09:31:57.684Z,1.90
2022-11-01T09:34:24.489Z,2.15
2022-11-01T09:36:51.359Z,1.55
2022-11-01T09:39:22.053Z,1.73
2022-11-01T09:41:53.091Z,1.70
2022-11-01T09:44:29.958Z,1.88
2022-11-01T09:47:02.766Z,1.63
2022-11-01T09:49:35.282Z,1.90
2022-11-01T09:52:02.222Z,1.38
2022-11-01T09:54:29.038Z,1.20
2022-11-01T09:57:22.692Z,1.53
2022-11-01T10:00:07.969Z,2.22
2022-11-01T10:03:01.896Z,1.17
2022-11-01T10:05:40.691Z,1.55
2022-11-01T10:08:38.230Z,0.88
2022-11-01T10:11:05.361Z,1.63
2022-11-01T10:13:56.104Z,1.50
2022-11-01T10:16:34.574Z,1.85
2022-11-01T10:19:04.615Z,2.10
2022-11-01T10:21:46.988Z,2.03
2022-11-01T10:24:39.424Z,1.95
2022-11-01T10:27:46.903Z,2.55
2022-11-01T10:30:17.267Z,3.17
2022-11-01T10:33:26.213Z,1.90
2022-11-01T10:36:05.642Z,1.10
2022-11-01T10:39:36.986Z,1.50
2022-11-01T10:41:39.121Z,1.42
2022-11-01T10:44:14.134Z,2.15
2022-11-01T10:46:45.713Z,2.15
2022-11-01T10:49:24.775Z,1.70
2022-11-01T10:51:56.566Z,1.90
2022-11-01T10:54:28.210Z,2.97
2022-11-01T10:56:58.539Z,2.55
2022-11-01T10:59:29.267Z,2.05
2022-11-01T11:01:57.353Z,1.92
2022-11-01T11:04:25.325Z,2.55
2022-11-01T11:06:52.616Z,2.78
2022-11-01T11:09:22.126Z,1.83
2022-11-01T11:11:50.985Z,2.20
2022-11-01T11:14:20.185Z,1.92
2022-11-01T11:16:57.120Z,1.50
2022-11-01T11:19:29.824Z,1.48
2022-11-01T11:21:58.898Z,1.35
2022-11-01T11:24:37.728Z,1.83
2022-11-01T11:27:14.551Z,3.15
2022-11-01T11:29:49.453Z,2.25
2022-11-01T11:32:22.189Z,1.58
2022-11-01T11:35:14.946Z,1.63
2022-11-01T11:37:56.725Z,1.60
2022-11-01T11:40:40.666Z,1.85
2022-11-01T11:43:31.434Z,1.17
2022-11-01T11:46:10.595Z,1.50
2022-11-01T11:49:01.131Z,1.50
2022-11-01T11:51:30.049Z,1.52
2022-11-01T11:54:21.913Z,1.98
2022-11-01T11:57:07.124Z,2.10
2022-11-01T11:59:35.115Z,2.33
2022-11-01T12:02:04.673Z,2.10
2022-11-01T12:04:39.409Z,1.60
2022-11-01T12:07:11.561Z,1.63
2022-11-01T12:09:43.977Z,1.27
2022-11-01T12:12:23.047Z,1.70
2022-11-01T12:14:50.673Z,1.38
2022-11-01T12:17:47.092Z,2.13
2022-11-01T12:20:14.325Z,1.95
2022-11-01T12:23:00.613Z,1.73
2022-11-01T12:25:27.535Z,1.70
2022-11-01T12:28:16.505Z,2.00
2022-11-01T12:30:44.457Z,1.60
2022-11-01T12:33:24.445Z,1.52
2022-11-01T12:35:54.441Z,1.92
2022-11-01T12:38:47.877Z,2.58
2022-11-01T12:41:44.125Z,1.90
2022-11-01T12:44:34.358Z,2.55
2022-11-01T12:47:30.447Z,2.53
2022-11-01T12:50:01.262Z,2.03
2022-11-01T12:52:44.179Z,2.08
2022-11-01T12:55:20.628Z,2.40
2022-11-01T12:57:48.519Z,2.40
2022-11-01T13:00:17.575Z,3.22
2022-11-01T13:02:50.291Z,2.35
2022-11-01T13:05:40.262Z,3.00
2022-11-01T13:08:26.196Z,2.72
2022-11-01T13:10:53.644Z,2.17
2022-11-01T13:13:44.897Z,7.20
2022-11-01T13:16:18.842Z,1.67
2022-11-01T13:19:10.052Z,2.92
2022-11-01T13:21:52.167Z,3.78
2022-11-01T13:24:43.673Z,3.03
2022-11-01T13:27:19.324Z,1.77
2022-11-01T13:30:19.235Z,1.90
2022-11-01T13:32:53.685Z,2.40
2022-11-01T13:35:36.893Z,2.55
2022-11-01T13:38:29.905Z,2.00
2022-11-01T13:41:19.909Z,2.35
2022-11-01T13:44:03.911Z,2.03
2022-11-01T13:46:40.044Z,2.08
2022-11-01T13:49:09.999Z,2.20
2022-11-01T13:51:49.603Z,1.92
2022-11-01T13:54:50.226Z,2.42
2022-11-01T13:57:19.937Z,2.00
2022-11-01T14:00:04.970Z,2.28
2022-11-01T14:02:54.827Z,2.70
2022-11-01T14:05:22.069Z,3.35
2022-11-01T14:07:50.520Z,3.25
2022-11-01T14:10:17.464Z,2.15
2022-11-01T14:12:48.316Z,2.05
2022-11-01T14:15:22.319Z,1.88
2022-11-01T14:17:57.839Z,2.28
2022-11-01T14:20:31.766Z,3.35
2022-11-01T14:22:59.914Z,3.00
2022-11-01T14:25:30.619Z,1.90
2022-11-01T14:28:16.313Z,2.30
2022-11-01T14:30:47.201Z,2.95
2022-11-01T14:33:16.690Z,2.92
2022-11-01T14:35:50.021Z,2.22
2022-11-01T14:38:23.732Z,2.65
2022-11-01T14:41:01.978Z,2.22
2022-11-01T14:43:40.866Z,1.90
2022-11-01T14:46:27.573Z,2.55
2022-11-01T14:49:07.141Z,3.95
2022-11-01T14:52:07.898Z,3.70
2022-11-01T14:54:52.219Z,2.58
2022-11-01T14:57:31.258Z,2.92
2022-11-01T14:59:59.524Z,3.10
2022-11-01T15:02:28.305Z,3.08
2022-11-01T15:05:00.214Z,3.15
2022-11-01T15:07:31.492Z,3.10
2022-11-01T15:10:11.037Z,3.67
2022-11-01T15:12:47.534Z,4.15
2022-11-01T15:15:22.208Z,3.85
2022-11-01T15:17:53.582Z,3.67
2022-11-01T15:20:21.246Z,2.63
2022-11-01T15:22:48.881Z,3.10
2022-11-01T15:25:26.698Z,2.83
2022-11-01T15:27:55.567Z,1.65
2022-11-01T15:30:28.841Z,1.92
2022-11-01T15:33:28.156Z,2.03
2022-11-01T15:35:56.525Z,1.65
2022-11-01T15:38:23.753Z,2.08
2022-11-01T15:40:51.075Z,1.45
2022-11-01T15:43:26.841Z,1.40
2022-11-01T15:46:01.793Z,1.60
2022-11-01T15:48:35.959Z,2.33
2022-11-01T15:51:06.267Z,1.50
2022-11-01T15:53:37.263Z,1.50
2022-11-01T15:56:15.877Z,1.92
2022-11-01T15:58:57.456Z,1.63
2022-11-01T16:01:24.858Z,1.40
2022-11-01T16:04:05.853Z,2.17
2022-11-01T16:06:51.146Z,1.50
2022-11-01T16:09:31.691Z,1.50
2022-11-01T16:12:00.950Z,1.70
2022-11-01T16:14:37.631Z,1.45
2022-11-01T16:17:07.621Z,2.30
2022-11-01T16:19:51.585Z,1.58
2022-11-01T16:22:26.729Z,1.92
2022-11-01T16:25:16.800Z,1.20
2022-11-01T16:27:53.267Z,1.75
2022-11-01T16:30:38.853Z,1.80
2022-11-01T16:33:25.547Z,1.27
2022-11-01T16:36:03.235Z,1.70
2022-11-01T16:38:33.188Z,1.75
2022-11-01T16:41:02.974Z,1.60
2022-11-01T16:43:31.904Z,1.58
2022-11-01T16:45:59.580Z,1.95
2022-11-01T16:48:28.917Z,2.25
2022-11-01T16:50:57.204Z,1.65
2022-11-01T16:53:29.542Z,1.77
2022-11-01T16:56:23.056Z,1.33
2022-11-01T16:58:50.597Z,1.50
2022-11-01T17:01:23.931Z,2.35
2022-11-01T17:03:52.680Z,1.75
2022-11-01T17:06:20.958Z,1.73
2022-11-01T17:08:47.819Z,2.20
2022-11-01T17:11:14.641Z,3.50
2022-11-01T17:13:41.551Z,2.67
2022-11-01T17:16:32.164Z,1.60
2022-11-01T17:19:00.426Z,1.85
2022-11-01T17:21:30.802Z,2.13
2022-11-01T17:23:57.878Z,1.88
2022-11-01T17:26:24.868Z,1.40
2022-11-01T17:28:52.574Z,1.67
2022-11-01T17:31:19.635Z,1.60
2022-11-01T17:33:46.780Z,1.50
2022-11-01T17:36:15.505Z,2.05
2022-11-01T17:38:42.962Z,1.50
2022-11-01T17:41:14.742Z,1.70
2022-11-01T17:43:41.514Z,1.83
2022-11-01T17:46:18.478Z,1.70
2022-11-01T17:48:45.354Z,1.80
2022-11-01T17:51:12.190Z,2.60
2022-11-01T17:53:40.463Z,2.67
2022-11-01T17:56:09.496Z,3.13
2022-11-01T17:58:36.708Z,2.20
2022-11-01T18:01:04.930Z,1.80
2022-11-01T18:03:31.852Z,1.60
2022-11-01T18:05:59.671Z,1.58
2022-11-01T18:08:28.028Z,1.60
2022-11-01T18:10:59.359Z,2.13
2022-11-01T18:13:29.630Z,1.77
2022-11-01T18:15:59.399Z,2.73
2022-11-01T18:18:42.707Z,1.70
2022-11-01T18:21:25.223Z,2.53
2022-11-01T18:23:54.386Z,1.50
2022-11-01T18:26:23.064Z,1.30
2022-11-01T18:28:51.232Z,2.60
2022-11-01T18:31:23.879Z,2.20
2022-11-01T18:33:52.972Z,1.60
2022-11-01T18:36:29.684Z,1.50
2022-11-01T18:38:56.814Z,2.00
2022-11-01T18:41:23.986Z,1.70
2022-11-01T18:43:52.708Z,2.20
2022-11-01T18:46:25.809Z,1.93
2022-11-01T18:49:00.171Z,1.70
2022-11-01T18:51:28.998Z,1.80
2022-11-01T18:54:12.603Z,2.20
2022-11-01T18:56:47.771Z,2.73
2022-11-01T18:59:21.169Z,2.00
2022-11-01T19:01:52.693Z,2.00
2022-11-01T19:04:21.894Z,1.77
2022-11-01T19:06:49.697Z,2.20
2022-11-01T19:09:37.078Z,2.60
2022-11-01T19:12:12.567Z,2.20
2022-11-01T19:14:40.463Z,1.73
2022-11-01T19:17:13.179Z,1.97
2022-11-01T19:19:42.821Z,1.97
2022-11-01T19:22:26.387Z,2.10
2022-11-01T19:24:53.581Z,3.70
2022-11-01T19:27:23.183Z,2.20
2022-11-01T19:29:56.761Z,1.90
2022-11-01T19:32:25.922Z,2.43
2022-11-01T19:34:53.588Z,2.00
2022-11-01T19:37:24.823Z,2.20
2022-11-01T19:39:52.216Z,2.33
2022-11-01T19:42:32.391Z,2.40
2022-11-01T19:45:03.357Z,2.37
2022-11-01T19:47:36.297Z,2.87
2022-11-01T19:50:11.086Z,3.43
2022-11-01T19:52:43.183Z,3.30
2022-11-01T19:55:31.807Z,2.57
2022-11-01T19:58:00.521Z,2.57
2022-11-01T20:00:29.302Z,2.20
2022-11-01T20:03:00.395Z,3.73
2022-11-01T20:05:34.338Z,1.80
2022-11-01T20:08:22.747Z,3.43
2022-11-01T20:10:49.604Z,2.23
2022-11-01T20:13:16.735Z,2.00
2022-11-01T20:15:44.384Z,2.97
2022-11-01T20:18:11.166Z,2.03
2022-11-01T20:20:39.503Z,2.30
2022-11-01T20:23:25.096Z,2.17
2022-11-01T20:25:52.915Z,1.57
2022-11-01T20:28:19.706Z,2.03
2022-11-01T20:30:46.550Z,1.70
2022-11-01T20:33:13.836Z,2.20
2022-11-01T20:35:40.592Z,2.00
2022-11-01T20:38:07.513Z,3.60
2022-11-01T20:40:34.633Z,2.30
2022-11-01T20:43:01.741Z,1.47
2022-11-01T20:45:28.851Z,1.87
2022-11-01T20:47:55.934Z,2.83
2022-11-01T20:50:22.758Z,3.63
2022-11-01T20:52:49.755Z,1.73
2022-11-01T20:55:17.165Z,2.10
2022-11-01T20:57:44.593Z,2.20
2022-11-01T21:00:18.252Z,1.80
2022-11-01T21:02:46.318Z,3.10
2022-11-01T21:05:20.081Z,5.30
2022-11-01T21:07:48.107Z,2.83
2022-11-01T21:10:26.748Z,2.67
2022-11-01T21:12:54.114Z,2.13
2022-11-01T21:15:26.593Z,2.90
2022-11-01T21:18:13.397Z,2.53
2022-11-01T21:20:45.278Z,2.47
2022-11-01T21:23:35.613Z,1.70
2022-11-01T21:26:22.804Z,2.30
2022-11-01T21:28:52.646Z,2.30
2022-11-01T21:31:29.913Z,2.20
2022-11-01T21:33:57.955Z,1.90
2022-11-01T21:36:36.483Z,2.10
2022-11-01T21:39:14.232Z,1.90
2022-11-01T21:41:57.409Z,1.80
2022-11-01T21:44:30.018Z,1.90
2022-11-01T21:47:10.554Z,2.13
2022-11-01T21:49:40.055Z,2.07
2022-11-01T21:54:38.990Z,2.57
2022-11-01T21:57:08.244Z,2.33
2022-11-01T21:59:35.929Z,2.50
2022-11-01T22:02:04.531Z,1.70
2022-11-01T22:04:32.400Z,1.77
2022-11-01T22:07:01.197Z,2.67
2022-11-01T22:09:28.399Z,1.90
2022-11-01T22:11:55.594Z,1.60
2022-11-01T22:14:22.411Z,2.03
2022-11-01T22:16:49.351Z,2.10
2022-11-01T22:19:16.263Z,2.63
2022-11-01T22:21:43.334Z,1.80
2022-11-01T22:24:10.525Z,1.80
2022-11-01T22:26:37.360Z,1.80
2022-11-01T22:29:04.230Z,2.13
2022-11-01T22:31:31.302Z,2.27
2022-11-01T22:33:59.041Z,3.37
2022-11-01T22:36:31.793Z,2.27
2022-11-01T22:39:00.072Z,2.10
2022-11-01T22:41:36.145Z,1.90
2022-11-01T22:44:17.205Z,2.10
2022-11-01T22:46:56.776Z,2.23
2022-11-01T22:49:28.623Z,2.07
2022-11-01T22:51:58.429Z,2.53
2022-11-01T22:54:34.298Z,3.57
2022-11-01T22:57:10.410Z,2.10
2022-11-01T23:00:00.140Z,1.80
2022-11-01T23:02:37.132Z,1.53
2022-11-01T23:05:07.090Z,2.40
2022-11-01T23:07:46.809Z,1.83
2022-11-01T23:10:27.632Z,2.10
2022-11-01T23:13:35.222Z,1.33
2022-11-01T23:16:10.933Z,2.10
2022-11-01T23:18:43.547Z,1.90
2022-11-01T23:21:10.761Z,2.00
2022-11-01T23:23:45.609Z,2.00
2022-11-01T23:26:13.671Z,2.10
2022-11-01T23:28:46.365Z,1.90
2022-11-01T23:31:13.957Z,1.73
2022-11-01T23:33:42.876Z,2.10
2022-11-01T23:36:21.707Z,2.10
2022-11-01T23:39:14.154Z,2.53
2022-11-01T23:41:48.719Z,2.07
2022-11-01T23:44:33.522Z,2.03
2022-11-01T23:47:19.839Z,2.20
2022-11-01T23:49:51.033Z,1.83
2022-11-01T23:52:27.735Z,2.97
2022-11-01T23:54:54.798Z,1.97
2022-11-01T23:57:21.894Z,2.10
2022-11-01T23:59:50.916Z,2.60
